Time;durP1;ratioP1;P1;durP2;ratioP2;P2;SDS_P1;SDS_P2;PMS_P1;PMS_P2;Temp;Humidity;BMP_temperature;BMP_pressure;BME280_temperature;BME280_humidity;BME280_pressure;Samples;Min_cycle;Max_cycle;Signal;HPM_P1;HPM_P2
2021/04/02 00:02:24;;;;;;;9.97;5.53;;;12.40;99.90;;;;;;5099875;28;20186;-82
2021/04/02 00:04:50;;;;;;;6.70;4.90;;;12.40;99.90;;;;;;5100229;28;20216;-82
2021/04/02 00:07:15;;;;;;;6.70;5.40;;;12.30;99.90;;;;;;5100081;28;20187;-83
2021/04/02 00:09:41;;;;;;;4.80;4.17;;;12.30;99.90;;;;;;5100461;28;20162;-82
2021/04/02 00:12:08;;;;;;;12.23;5.10;;;12.20;99.90;;;;;;5100857;28;20163;-83
2021/04/02 00:14:34;;;;;;;7.03;5.50;;;12.10;99.90;;;;;;5100514;28;20938;-83
2021/04/02 00:17:00;;;;;;;15.30;5.80;;;12.10;99.90;;;;;;5100058;28;20392;-83
2021/04/02 00:19:25;;;;;;;5.97;5.37;;;12.10;99.90;;;;;;5109718;28;20193;-81
2021/04/02 00:21:51;;;;;;;9.33;5.50;;;12.10;99.90;;;;;;5117022;28;20404;-81
2021/04/02 00:24:17;;;;;;;7.13;4.97;;;12.00;99.90;;;;;;5100107;28;20178;-83
2021/04/02 00:26:43;;;;;;;7.47;5.00;;;11.80;99.90;;;;;;5104618;28;20162;-83
2021/04/02 00:29:09;;;;;;;6.03;5.00;;;11.90;99.90;;;;;;5100451;28;20189;-83
2021/04/02 00:31:35;;;;;;;5.43;4.93;;;11.80;99.90;;;;;;5100059;28;20170;-83
2021/04/02 00:34:02;;;;;;;9.20;5.87;;;11.80;99.90;;;;;;5100325;28;20401;-83
2021/04/02 00:36:28;;;;;;;6.77;5.20;;;11.70;99.90;;;;;;5099514;28;20450;-83
2021/04/02 00:38:54;;;;;;;7.50;6.20;;;11.70;99.90;;;;;;5099880;28;20842;-82
2021/04/02 00:41:20;;;;;;;6.80;5.67;;;11.60;99.90;;;;;;5098558;28;20437;-82
2021/04/02 00:43:51;;;;;;;8.40;4.90;;;11.60;99.90;;;;;;5100097;28;20162;-82
2021/04/02 00:46:20;;;;;;;6.30;5.70;;;11.60;99.90;;;;;;5099139;28;20456;-82
2021/04/02 00:48:47;;;;;;;13.70;6.00;;;11.50;99.90;;;;;;5099369;28;20393;-83
2021/04/02 00:51:28;;;;;;;7.30;6.33;;;11.50;99.90;;;;;;5099530;28;20426;-83
2021/04/02 00:53:55;;;;;;;7.00;5.60;;;11.40;99.90;;;;;;5099304;28;20941;-83
2021/04/02 00:56:22;;;;;;;10.20;5.60;;;11.40;99.90;;;;;;5098919;28;20397;-83
2021/04/02 00:58:50;;;;;;;7.50;6.87;;;11.30;99.90;;;;;;5098964;28;20393;-82
2021/04/02 01:01:16;;;;;;;8.43;6.40;;;11.30;99.90;;;;;;5099006;28;20436;-82
2021/04/02 01:03:44;;;;;;;5.93;5.40;;;11.30;99.90;;;;;;5099283;28;20396;-83
2021/04/02 01:06:16;;;;;;;8.70;6.07;;;11.20;99.90;;;;;;5097942;28;20493;-83
2021/04/02 01:08:42;;;;;;;12.73;6.30;;;11.30;99.90;;;;;;5099007;28;20508;-83
2021/04/02 01:11:13;;;;;;;6.23;5.63;;;11.30;99.90;;;;;;5099498;28;20475;-82
2021/04/02 01:13:45;;;;;;;9.20;5.60;;;11.30;99.90;;;;;;5099410;28;20404;-83
2021/04/02 01:16:24;;;;;;;8.17;5.50;;;11.20;99.90;;;;;;5091716;28;20393;-83
2021/04/02 01:19:16;;;;;;;7.73;6.40;;;11.20;99.90;;;;;;5099528;28;20397;-83
2021/04/02 01:21:55;;;;;;;10.63;6.50;;;11.20;99.90;;;;;;5100060;28;20397;-83
2021/04/02 01:24:58;;;;;;;7.57;5.47;;;11.20;99.90;;;;;;5100358;28;20472;-82
2021/04/02 01:27:48;;;;;;;8.40;6.80;;;11.20;99.90;;;;;;5099669;28;20404;-83
2021/04/02 01:30:15;;;;;;;11.30;6.30;;;11.20;99.90;;;;;;5093531;28;20443;-83
2021/04/02 01:32:43;;;;;;;8.87;6.30;;;11.20;99.90;;;;;;5101520;28;20452;-83
2021/04/02 01:35:21;;;;;;;10.87;7.20;;;11.00;99.90;;;;;;5101878;28;20396;-83
2021/04/02 01:37:54;;;;;;;7.60;6.87;;;10.90;99.90;;;;;;5103397;28;20393;-83
2021/04/02 01:40:23;;;;;;;8.00;7.20;;;11.00;99.90;;;;;;5103915;28;20441;-82
2021/04/02 01:42:51;;;;;;;7.97;7.17;;;10.80;99.90;;;;;;5105088;28;20393;-83
2021/04/02 01:45:18;;;;;;;11.83;8.40;;;10.70;99.90;;;;;;5116692;28;20437;-81
2021/04/02 01:47:44;;;;;;;9.27;8.33;;;10.60;99.90;;;;;;5117063;28;20393;-80
2021/04/02 01:50:15;;;;;;;13.90;10.20;;;10.70;99.90;;;;;;5117007;28;20773;-80
2021/04/02 01:52:41;;;;;;;11.00;8.83;;;10.80;99.90;;;;;;5102927;28;20512;-83
2021/04/02 01:55:09;;;;;;;11.70;8.50;;;10.80;99.90;;;;;;5099218;28;20737;-82
2021/04/02 01:57:36;;;;;;;8.77;7.93;;;10.50;99.90;;;;;;5099171;28;20393;-83
2021/04/02 02:00:11;;;;;;;9.50;7.77;;;10.10;99.90;;;;;;5098808;28;20809;-82
2021/04/02 02:02:38;;;;;;;11.10;7.43;;;10.20;99.90;;;;;;5099301;28;20407;-82
2021/04/02 02:05:07;;;;;;;11.70;7.30;;;10.20;99.90;;;;;;5098214;28;20397;-82
2021/04/02 02:07:35;;;;;;;8.27;7.17;;;10.30;99.90;;;;;;5098531;28;20435;-82
2021/04/02 02:10:01;;;;;;;9.13;8.17;;;9.90;99.90;;;;;;5097716;28;20476;-82
2021/04/02 02:12:28;;;;;;;7.90;7.10;;;10.00;99.90;;;;;;5096321;28;20399;-82
2021/04/02 02:14:56;;;;;;;7.93;6.80;;;10.00;99.90;;;;;;5097293;28;20388;-83
2021/04/02 02:17:25;;;;;;;10.23;6.80;;;10.00;99.90;;;;;;5098565;28;20393;-82
2021/04/02 02:19:51;;;;;;;9.57;7.78;;;10.10;99.90;;;;;;5097363;28;20436;-82
2021/04/02 02:22:19;;;;;;;8.00;6.77;;;10.20;99.90;;;;;;5109627;28;20194;-81
2021/04/02 02:24:46;;;;;;;10.00;6.50;;;10.10;99.90;;;;;;5113547;28;20447;-81
2021/04/02 02:27:12;;;;;;;6.37;5.77;;;10.20;99.90;;;;;;5116045;28;20389;-82
2021/04/02 02:29:38;;;;;;;11.50;7.40;;;10.20;99.90;;;;;;5103871;28;20416;-83
2021/04/02 02:32:06;;;;;;;7.53;6.00;;;10.20;99.90;;;;;;5102346;28;20736;-82
2021/04/02 02:34:32;;;;;;;9.20;7.47;;;10.00;99.90;;;;;;5101868;28;20457;-81
2021/04/02 02:36:59;;;;;;;8.40;6.33;;;10.10;99.90;;;;;;5101717;28;20444;-82
2021/04/02 02:39:25;;;;;;;9.57;8.13;;;10.20;99.90;;;;;;5101524;28;20393;-82
2021/04/02 02:41:52;;;;;;;10.50;8.20;;;10.20;99.90;;;;;;5100256;28;20403;-82
2021/04/02 02:44:18;;;;;;;10.80;7.50;;;10.30;99.90;;;;;;5101364;28;20163;-82
2021/04/02 02:46:44;;;;;;;7.50;6.73;;;10.20;99.90;;;;;;5102023;28;20446;-82
2021/04/02 02:49:14;;;;;;;13.03;7.70;;;10.40;99.90;;;;;;5101464;28;20165;-82
2021/04/02 02:51:42;;;;;;;7.83;6.87;;;10.40;99.90;;;;;;5101300;28;20436;-82
2021/04/02 02:54:13;;;;;;;8.40;7.30;;;10.30;99.90;;;;;;5107456;28;20399;-82
2021/04/02 02:56:42;;;;;;;6.87;6.27;;;10.20;99.90;;;;;;5115265;28;20389;-81
2021/04/02 02:59:12;;;;;;;10.50;7.43;;;10.20;99.90;;;;;;5119585;28;20381;-81
2021/04/02 03:01:38;;;;;;;8.80;6.33;;;10.20;99.90;;;;;;5119882;28;20387;-81
2021/04/02 03:04:06;;;;;;;7.63;6.50;;;10.20;99.90;;;;;;5111381;28;20408;-82
2021/04/02 03:06:37;;;;;;;9.13;7.30;;;10.20;99.90;;;;;;5102108;28;20890;-83
2021/04/02 03:09:04;;;;;;;9.33;8.17;;;10.20;99.90;;;;;;5101127;28;20504;-82
2021/04/02 03:11:30;;;;;;;8.40;7.60;;;10.00;99.90;;;;;;5101900;28;20440;-82
2021/04/02 03:13:59;;;;;;;10.20;7.13;;;10.00;99.90;;;;;;5101164;28;20381;-81
2021/04/02 03:16:26;;;;;;;8.13;7.20;;;10.00;99.90;;;;;;5100851;28;20389;-82
2021/04/02 03:18:55;;;;;;;9.63;7.33;;;10.10;99.90;;;;;;5101345;28;20416;-83
2021/04/02 03:21:22;;;;;;;7.30;6.30;;;10.10;99.90;;;;;;5102032;28;20405;-83
2021/04/02 03:23:50;;;;;;;11.83;8.13;;;10.10;99.90;;;;;;5101329;28;20397;-83
2021/04/02 03:26:17;;;;;;;8.60;7.70;;;10.20;99.90;;;;;;5101635;28;20393;-82
2021/04/02 03:28:44;;;;;;;9.50;6.70;;;10.10;99.90;;;;;;5103480;28;20759;-81
2021/04/02 03:31:11;;;;;;;10.30;6.97;;;10.00;99.90;;;;;;5119006;28;20513;-81
2021/04/02 03:33:46;;;;;;;9.03;7.53;;;10.00;99.90;;;;;;5108782;28;20477;-82
2021/04/02 03:36:14;;;;;;;7.90;7.13;;;9.90;99.90;;;;;;5101438;28;20802;-82
2021/04/02 03:38:44;;;;;;;9.00;6.60;;;10.00;99.90;;;;;;5101069;28;20805;-83
2021/04/02 03:41:14;;;;;;;8.83;6.40;;;10.00;99.90;;;;;;5101152;28;20397;-82
2021/04/02 03:43:43;;;;;;;8.33;5.70;;;9.90;99.90;;;;;;5100813;28;20479;-82
2021/04/02 03:46:10;;;;;;;9.03;7.30;;;9.90;99.90;;;;;;5100203;28;20452;-82
2021/04/02 03:48:39;;;;;;;6.40;5.77;;;9.90;99.90;;;;;;5100803;28;20460;-83
2021/04/02 03:51:07;;;;;;;7.33;6.63;;;9.90;99.90;;;;;;5100843;28;20509;-82
2021/04/02 03:53:40;;;;;;;6.10;5.50;;;9.70;99.90;;;;;;5099033;28;20389;-83
2021/04/02 03:56:09;;;;;;;11.30;6.03;;;9.80;99.90;;;;;;5100944;28;20537;-83
2021/04/02 03:58:37;;;;;;;6.40;5.17;;;9.80;99.90;;;;;;5100270;28;20787;-82
2021/04/02 04:01:13;;;;;;;7.07;6.37;;;9.70;99.90;;;;;;5100386;28;20392;-82
2021/04/02 04:03:42;;;;;;;7.37;6.60;;;9.70;99.90;;;;;;5100461;28;20919;-82
2021/04/02 04:06:13;;;;;;;8.90;5.77;;;9.70;99.90;;;;;;5100909;28;20388;-83
2021/04/02 04:08:40;;;;;;;7.30;6.00;;;9.70;99.90;;;;;;5101101;28;20439;-82
2021/04/02 04:11:08;;;;;;;5.37;4.30;;;9.60;99.90;;;;;;5106451;28;20441;-82
2021/04/02 04:13:38;;;;;;;6.10;5.63;;;9.60;99.90;;;;;;5112962;28;20444;-82
2021/04/02 04:16:06;;;;;;;8.87;5.67;;;9.60;99.90;;;;;;5113706;28;20385;-82
2021/04/02 04:18:34;;;;;;;6.83;5.40;;;9.50;99.90;;;;;;5111151;28;20400;-82
2021/04/02 04:21:04;;;;;;;5.60;4.90;;;9.50;99.90;;;;;;5117433;28;20391;-82
2021/04/02 04:23:31;;;;;;;6.13;5.33;;;9.50;99.90;;;;;;5116932;28;20457;-82
2021/04/02 04:25:58;;;;;;;5.10;4.60;;;9.40;99.90;;;;;;5117510;28;20377;-81
2021/04/02 04:28:26;;;;;;;6.50;5.90;;;9.30;99.90;;;;;;5111847;28;20534;-82
2021/04/02 04:30:55;;;;;;;6.77;6.17;;;9.30;99.90;;;;;;5101413;28;20445;-82
2021/04/02 04:33:24;;;;;;;6.33;5.50;;;9.20;99.90;;;;;;5100687;28;20799;-83
2021/04/02 04:35:52;;;;;;;5.17;4.57;;;9.20;99.90;;;;;;5100400;28;20462;-82
2021/04/02 04:38:18;;;;;;;9.00;5.90;;;9.20;99.90;;;;;;5100417;28;20485;-82
2021/04/02 04:40:45;;;;;;;6.80;5.60;;;9.20;99.90;;;;;;5099805;28;20744;-82
2021/04/02 04:43:13;;;;;;;5.40;4.90;;;9.20;99.90;;;;;;5100213;28;20396;-82
2021/04/02 04:45:40;;;;;;;7.70;5.57;;;9.20;99.90;;;;;;5099463;28;20520;-82
2021/04/02 04:48:06;;;;;;;6.27;5.77;;;9.20;99.90;;;;;;5100017;28;20393;-82
2021/04/02 04:50:33;;;;;;;6.13;5.53;;;9.10;99.90;;;;;;5098681;28;20466;-82
2021/04/02 04:53:04;;;;;;;5.67;5.10;;;9.10;99.90;;;;;;5098184;28;20397;-82
2021/04/02 04:55:34;;;;;;;8.33;5.80;;;9.10;99.90;;;;;;5098994;28;20393;-83
2021/04/02 04:58:01;;;;;;;6.73;6.03;;;9.10;99.90;;;;;;5115185;28;20912;-82
2021/04/02 05:00:31;;;;;;;8.43;5.17;;;9.00;99.90;;;;;;5119757;28;20400;-82
2021/04/02 05:02:58;;;;;;;12.40;5.97;;;9.00;99.90;;;;;;5119626;28;20792;-83
2021/04/02 05:05:29;;;;;;;5.83;4.80;;;9.00;99.90;;;;;;5119621;28;20400;-82
2021/04/02 05:07:57;;;;;;;5.63;5.10;;;9.00;99.90;;;;;;5119123;28;20772;-82
2021/04/02 05:10:24;;;;;;;5.23;4.73;;;9.00;99.90;;;;;;5119318;28;20439;-82
2021/04/02 05:12:51;;;;;;;5.30;4.80;;;9.00;99.90;;;;;;5119106;28;20384;-82
2021/04/02 05:15:20;;;;;;;4.40;4.00;;;9.10;99.90;;;;;;5118414;28;20387;-82
2021/04/02 05:17:47;;;;;;;7.53;5.20;;;9.10;99.90;;;;;;5119182;28;20877;-82
2021/04/02 05:20:14;;;;;;;6.53;5.13;;;9.10;99.90;;;;;;5119028;28;20392;-81
2021/04/02 05:22:39;;;;;;;6.47;4.70;;;9.10;99.90;;;;;;5119520;28;20912;-82
2021/04/02 05:25:06;;;;;;;6.10;5.50;;;9.10;99.90;;;;;;5119570;28;20408;-82
2021/04/02 05:27:32;;;;;;;5.73;4.93;;;9.00;99.90;;;;;;5119362;28;20158;-82
2021/04/02 05:29:58;;;;;;;4.97;4.57;;;9.00;99.90;;;;;;5119321;28;20458;-82
2021/04/02 05:32:24;;;;;;;11.83;4.60;;;9.00;99.90;;;;;;5118924;28;20638;-81
2021/04/02 05:34:49;;;;;;;7.70;6.07;;;9.10;99.90;;;;;;5119585;28;20388;-82
2021/04/02 05:37:15;;;;;;;5.83;4.67;;;9.10;99.90;;;;;;5122403;28;20431;-80
2021/04/02 05:39:41;;;;;;;5.30;4.83;;;9.00;99.90;;;;;;5120396;28;20154;-82
2021/04/02 05:42:09;;;;;;;7.43;4.87;;;9.10;99.90;;;;;;5119144;28;20160;-82
2021/04/02 05:44:37;;;;;;;7.03;4.30;;;9.10;99.90;;;;;;5118193;28;20228;-82
2021/04/02 05:47:06;;;;;;;5.40;4.77;;;9.20;99.90;;;;;;5119583;28;20427;-82
2021/04/02 05:49:32;;;;;;;4.80;4.30;;;9.10;99.90;;;;;;5119186;28;20392;-82
2021/04/02 05:51:59;;;;;;;4.73;4.33;;;9.20;99.90;;;;;;5118617;28;20391;-82
2021/04/02 05:54:30;;;;;;;5.77;5.17;;;9.20;99.90;;;;;;5118959;28;20730;-82
2021/04/02 05:56:58;;;;;;;4.47;4.00;;;9.20;99.90;;;;;;5118897;28;20455;-82
2021/04/02 05:59:24;;;;;;;4.93;4.50;;;9.20;99.90;;;;;;5118571;28;20392;-82
2021/04/02 06:01:50;;;;;;;7.77;5.83;;;9.30;99.90;;;;;;5138467;28;20460;-82
2021/04/02 06:04:17;;;;;;;5.13;4.63;;;9.40;99.90;;;;;;5134415;28;20173;-83
2021/04/02 06:06:44;;;;;;;4.70;3.70;;;9.50;99.90;;;;;;5122015;28;20399;-83
2021/04/02 06:09:12;;;;;;;3.57;3.27;;;9.30;99.90;;;;;;5122812;28;20777;-81
2021/04/02 06:11:37;;;;;;;3.23;3.03;;;9.30;99.90;;;;;;5124031;28;20444;-82
2021/04/02 06:14:07;;;;;;;3.37;3.07;;;9.40;99.90;;;;;;5122851;28;20391;-81
2021/04/02 06:16:33;;;;;;;3.10;2.80;;;9.60;99.90;;;;;;5123423;28;20884;-82
2021/04/02 06:19:08;;;;;;;3.20;2.90;;;9.50;99.90;;;;;;5125542;28;20403;-83
2021/04/02 06:21:45;;;;;;;4.10;3.70;;;9.50;99.90;;;;;;5135259;28;20903;-83
2021/04/02 06:24:12;;;;;;;3.13;2.77;;;9.10;99.90;;;;;;5124351;28;20398;-82
2021/04/02 06:26:39;;;;;;;4.77;3.27;;;9.30;99.90;;;;;;5136084;28;20388;-83
2021/04/02 06:29:04;;;;;;;5.03;2.80;;;9.50;99.90;;;;;;5124478;28;20658;-82
2021/04/02 06:31:35;;;;;;;4.43;3.83;;;9.60;99.90;;;;;;5124402;28;20484;-82
2021/04/02 06:34:06;;;;;;;3.47;2.87;;;9.70;99.90;;;;;;5125066;28;20237;-82
2021/04/02 06:36:32;;;;;;;3.37;3.07;;;9.60;99.90;;;;;;5123826;28;20384;-82
2021/04/02 06:39:02;;;;;;;4.63;4.17;;;9.50;99.90;;;;;;5130008;28;20383;-80
2021/04/02 06:41:30;;;;;;;3.50;3.20;;;9.50;99.90;;;;;;5140366;28;20382;-82
2021/04/02 06:43:58;;;;;;;3.60;3.10;;;9.50;99.90;;;;;;5125949;28;20423;-82
2021/04/02 06:46:33;;;;;;;3.20;2.90;;;9.20;99.90;;;;;;5122208;28;20816;-82
2021/04/02 06:49:16;;;;;;;7.07;3.13;;;9.30;99.90;;;;;;5122789;28;20755;-82
2021/04/02 06:51:45;;;;;;;3.40;3.10;;;9.50;99.90;;;;;;5122510;28;20470;-82
2021/04/02 06:54:13;;;;;;;3.93;3.37;;;9.50;99.90;;;;;;5122611;28;20533;-83
2021/04/02 06:56:45;;;;;;;4.13;3.10;;;9.50;99.90;;;;;;5121989;28;20396;-83
2021/04/02 06:59:17;;;;;;;3.93;3.10;;;9.40;99.90;;;;;;5121599;28;20919;-82
2021/04/02 07:01:47;;;;;;;3.20;2.90;;;9.30;99.90;;;;;;5121776;28;20467;-83
2021/04/02 07:04:14;;;;;;;3.10;2.80;;;9.20;99.90;;;;;;5121429;28;20865;-82
2021/04/02 07:06:41;;;;;;;3.10;2.80;;;9.20;99.90;;;;;;5121372;28;20392;-83
2021/04/02 07:09:10;;;;;;;5.77;4.00;;;9.10;99.90;;;;;;5121654;28;20428;-82
2021/04/02 07:11:37;;;;;;;4.53;4.03;;;9.30;99.90;;;;;;5120573;28;20447;-82
2021/04/02 07:14:07;;;;;;;3.40;3.10;;;9.20;99.90;;;;;;5121831;28;20781;-81
2021/04/02 07:16:34;;;;;;;4.17;3.57;;;9.20;99.90;;;;;;5121956;28;20388;-83
2021/04/02 07:19:02;;;;;;;4.20;3.50;;;9.00;99.90;;;;;;5122109;28;20949;-83
2021/04/02 07:21:30;;;;;;;5.70;4.70;;;9.00;99.90;;;;;;5122108;28;20483;-83
2021/04/02 07:23:56;;;;;;;7.43;6.63;;;9.20;99.90;;;;;;5120315;28;20400;-82
2021/04/02 07:26:22;;;;;;;8.00;5.30;;;9.30;99.90;;;;;;5122542;28;20438;-83
2021/04/02 07:28:49;;;;;;;6.77;5.50;;;9.50;99.90;;;;;;5121927;28;20395;-82
2021/04/02 07:31:17;;;;;;;5.10;4.03;;;9.00;99.90;;;;;;5121994;28;20219;-83
2021/04/02 07:33:44;;;;;;;9.07;5.67;;;9.00;99.90;;;;;;5121956;28;20388;-83
2021/04/02 07:36:12;;;;;;;8.70;4.87;;;9.20;99.90;;;;;;5121097;28;20483;-82
2021/04/02 07:38:39;;;;;;;6.37;4.70;;;9.40;99.90;;;;;;5121453;28;20423;-82
2021/04/02 07:41:09;;;;;;;10.57;5.53;;;9.40;99.90;;;;;;5121548;28;20460;-82
2021/04/02 07:43:41;;;;;;;8.07;5.80;;;9.50;99.90;;;;;;5121166;28;20424;-83
2021/04/02 07:46:14;;;;;;;8.20;4.97;;;9.50;99.90;;;;;;5120685;28;20553;-82
2021/04/02 07:48:40;;;;;;;4.70;4.10;;;9.70;99.90;;;;;;5120932;28;20769;-82
2021/04/02 07:51:07;;;;;;;4.53;3.43;;;9.80;99.90;;;;;;5121007;28;20447;-83
2021/04/02 07:53:42;;;;;;;9.50;5.73;;;9.70;99.90;;;;;;5121142;28;20160;-82
2021/04/02 07:56:13;;;;;;;6.63;4.40;;;9.80;99.90;;;;;;5120585;28;20384;-82
2021/04/02 07:58:46;;;;;;;8.33;5.77;;;9.80;99.90;;;;;;5120500;28;20732;-82
2021/04/02 08:01:12;;;;;;;5.63;5.00;;;9.90;99.90;;;;;;5121165;28;20778;-83
2021/04/02 08:03:38;;;;;;;4.27;3.67;;;9.80;99.90;;;;;;5102961;28;20718;-83
2021/04/02 08:06:08;;;;;;;3.67;3.30;;;9.70;99.90;;;;;;5121820;28;20403;-83
2021/04/02 08:08:45;;;;;;;4.07;3.30;;;9.90;99.90;;;;;;5120525;28;20205;-82
2021/04/02 08:11:19;;;;;;;5.70;4.10;;;9.70;99.90;;;;;;5121023;28;20428;-82
2021/04/02 08:14:00;;;;;;;4.70;3.53;;;9.70;99.90;;;;;;5120523;28;20383;-82
2021/04/02 08:16:40;;;;;;;6.00;4.10;;;9.60;99.90;;;;;;5120411;28;20434;-81
2021/04/02 08:19:25;;;;;;;4.30;3.63;;;9.40;99.90;;;;;;5120442;28;20449;-83
2021/04/02 08:21:54;;;;;;;3.90;3.50;;;9.70;99.90;;;;;;5104598;28;20426;-83
2021/04/02 08:24:22;;;;;;;5.20;2.90;;;9.90;99.90;;;;;;5084626;28;20441;-82
2021/04/02 08:26:50;;;;;;;3.67;3.37;;;9.80;99.90;;;;;;5120373;28;20465;-82
2021/04/02 08:29:18;;;;;;;6.40;3.80;;;9.70;99.90;;;;;;5120057;28;20388;-82
2021/04/02 08:31:48;;;;;;;4.43;4.07;;;9.90;99.90;;;;;;5120686;28;20435;-82
2021/04/02 08:34:15;;;;;;;3.27;2.70;;;9.60;99.90;;;;;;5101927;28;20415;-82
2021/04/02 08:36:41;;;;;;;3.90;3.50;;;9.90;99.90;;;;;;5120481;28;20523;-82
2021/04/02 08:39:07;;;;;;;7.50;5.40;;;10.20;99.90;;;;;;5085574;28;20427;-82
2021/04/02 08:41:34;;;;;;;4.17;3.77;;;10.20;99.90;;;;;;5120380;28;20486;-82
2021/04/02 08:44:00;;;;;;;3.30;3.00;;;10.00;99.90;;;;;;5119929;28;20423;-83
2021/04/02 08:46:36;;;;;;;3.93;3.53;;;10.10;99.90;;;;;;5119423;28;21049;-83
2021/04/02 08:49:03;;;;;;;3.40;2.80;;;10.00;99.90;;;;;;5119975;28;20488;-83
2021/04/02 08:51:29;;;;;;;6.47;4.17;;;10.10;99.90;;;;;;5102004;28;21044;-82
2021/04/02 08:53:55;;;;;;;3.27;2.63;;;10.20;99.90;;;;;;5119715;28;20396;-82
2021/04/02 08:56:23;;;;;;;2.90;2.60;;;10.30;99.90;;;;;;5120434;28;20214;-82
2021/04/02 08:58:49;;;;;;;7.27;4.60;;;10.40;99.90;;;;;;5120072;28;20242;-82
2021/04/02 09:01:17;;;;;;;3.10;2.60;;;10.40;99.90;;;;;;5120222;28;20492;-82
2021/04/02 09:03:45;;;;;;;3.23;3.00;;;10.20;99.90;;;;;;5119562;28;20445;-83
2021/04/02 09:06:12;;;;;;;4.60;4.03;;;10.30;99.90;;;;;;5119750;28;20848;-82
2021/04/02 09:08:38;;;;;;;2.83;2.63;;;10.30;99.90;;;;;;5101937;28;20423;-82
2021/04/02 09:11:08;;;;;;;5.63;4.90;;;10.50;99.90;;;;;;5119813;28;20851;-81
2021/04/02 09:13:38;;;;;;;3.07;2.80;;;10.70;99.90;;;;;;5120306;28;20482;-81
2021/04/02 09:16:10;;;;;;;2.30;2.20;;;10.90;99.90;;;;;;5119532;28;20412;-81
2021/04/02 09:18:53;;;;;;;5.07;3.27;;;10.90;99.90;;;;;;5120379;28;20395;-82
2021/04/02 09:21:20;;;;;;;7.40;4.77;;;10.90;99.90;;;;;;5120020;28;20487;-82
2021/04/02 09:23:49;;;;;;;6.33;4.03;;;10.80;99.90;;;;;;5119858;28;20742;-83
2021/04/02 09:26:15;;;;;;;3.57;3.00;;;10.80;99.90;;;;;;5102431;28;20744;-82
2021/04/02 09:28:46;;;;;;;2.60;2.30;;;10.80;99.90;;;;;;5120157;28;20478;-83
2021/04/02 09:31:18;;;;;;;3.03;2.27;;;11.00;99.90;;;;;;5084657;28;20432;-83
2021/04/02 09:33:47;;;;;;;2.90;2.53;;;10.60;99.90;;;;;;5101931;28;20961;-83
2021/04/02 09:36:14;;;;;;;3.50;2.60;;;10.10;99.90;;;;;;5120468;28;20797;-83
2021/04/02 09:38:42;;;;;;;3.30;2.07;;;10.30;99.90;;;;;;5119938;28;20388;-83
2021/04/02 09:41:09;;;;;;;2.00;1.90;;;10.50;99.90;;;;;;5118791;28;20388;-83
2021/04/02 09:43:52;;;;;;;3.77;3.17;;;10.60;99.90;;;;;;5120524;28;20388;-83
2021/04/02 09:46:34;;;;;;;2.30;1.97;;;10.20;99.90;;;;;;5121379;28;20440;-83
2021/04/02 09:49:10;;;;;;;2.60;2.00;;;10.00;99.90;;;;;;5135802;28;20412;-81
2021/04/02 09:51:38;;;;;;;3.17;2.07;;;10.30;99.90;;;;;;5124476;28;20439;-83
2021/04/02 09:54:05;;;;;;;2.70;2.40;;;10.60;99.90;;;;;;5120492;28;20530;-83
2021/04/02 09:56:31;;;;;;;3.03;2.60;;;10.70;99.90;;;;;;5120733;28;20479;-82
2021/04/02 09:59:00;;;;;;;2.43;2.20;;;10.80;99.90;;;;;;5120140;28;20429;-83
2021/04/02 10:01:26;;;;;;;2.60;2.40;;;11.00;99.90;;;;;;5098434;28;20727;-83
2021/04/02 10:03:52;;;;;;;4.20;3.30;;;10.90;99.90;;;;;;5098190;28;20499;-84
2021/04/02 10:06:19;;;;;;;3.70;2.30;;;10.70;99.90;;;;;;5099082;28;20484;-83
2021/04/02 10:08:45;;;;;;;3.10;2.80;;;10.70;99.90;;;;;;5084615;28;20213;-82
2021/04/02 10:11:11;;;;;;;3.30;2.70;;;10.80;99.90;;;;;;5085366;28;20552;-83
2021/04/02 10:13:37;;;;;;;4.00;2.60;;;10.90;99.90;;;;;;5110132;28;20392;-83
2021/04/02 10:16:04;;;;;;;3.23;2.00;;;10.80;99.90;;;;;;5114114;28;20416;-82
2021/04/02 10:18:30;;;;;;;3.13;2.80;;;10.80;99.90;;;;;;5113282;28;20159;-82
2021/04/02 10:21:03;;;;;;;2.00;1.90;;;10.70;99.90;;;;;;5102752;28;20408;-83
2021/04/02 10:23:29;;;;;;;3.13;2.70;;;10.70;99.90;;;;;;5082049;28;20163;-83
2021/04/02 10:25:55;;;;;;;4.03;3.47;;;10.70;99.90;;;;;;5066880;28;20402;-83
2021/04/02 10:28:22;;;;;;;3.57;3.23;;;10.80;99.90;;;;;;5097295;28;20401;-83
2021/04/02 10:30:49;;;;;;;6.57;4.13;;;11.00;99.90;;;;;;5098517;28;20187;-83
2021/04/02 10:33:15;;;;;;;2.63;2.43;;;10.80;99.90;;;;;;5117657;28;20407;-83
2021/04/02 10:35:41;;;;;;;3.40;2.77;;;10.80;99.90;;;;;;5121303;28;20389;-83
2021/04/02 10:38:07;;;;;;;2.83;2.60;;;10.80;99.90;;;;;;5119000;28;20154;-83
2021/04/02 10:40:34;;;;;;;3.00;2.70;;;10.70;99.90;;;;;;5118904;28;20392;-83
2021/04/02 10:43:03;;;;;;;2.77;2.57;;;10.70;99.90;;;;;;5118459;28;20185;-83
2021/04/02 10:45:29;;;;;;;3.13;2.50;;;10.90;99.90;;;;;;5118729;28;20456;-83
2021/04/02 10:47:58;;;;;;;2.60;2.37;;;10.90;99.90;;;;;;5120982;28;20457;-83
2021/04/02 10:50:25;;;;;;;2.60;2.40;;;11.00;99.90;;;;;;5121494;28;20201;-81
2021/04/02 10:52:51;;;;;;;2.33;2.13;;;10.90;99.90;;;;;;5123449;28;20407;-83
2021/04/02 10:55:18;;;;;;;2.13;2.00;;;11.00;99.90;;;;;;5124152;28;20451;-82
2021/04/02 10:57:44;;;;;;;2.53;2.33;;;11.10;99.90;;;;;;5124214;28;20392;-81
2021/04/02 11:00:12;;;;;;;3.30;2.23;;;11.10;99.90;;;;;;5123576;28;20401;-84
2021/04/02 11:02:38;;;;;;;3.20;2.80;;;11.10;99.90;;;;;;5104703;28;20419;-82
2021/04/02 11:05:06;;;;;;;3.33;2.50;;;11.20;99.90;;;;;;5123505;28;20388;-81
2021/04/02 11:07:33;;;;;;;2.60;2.40;;;11.40;99.90;;;;;;5122668;28;20851;-82
2021/04/02 11:09:59;;;;;;;2.63;2.43;;;11.50;99.90;;;;;;5128247;28;20392;-83
2021/04/02 11:12:28;;;;;;;3.03;2.57;;;11.40;99.90;;;;;;5136419;28;20475;-79
2021/04/02 11:14:55;;;;;;;3.30;3.00;;;11.60;99.90;;;;;;5137051;28;20392;-83
2021/04/02 11:17:23;;;;;;;2.57;2.37;;;11.70;99.90;;;;;;5136288;28;20447;-82
2021/04/02 11:19:50;;;;;;;2.63;2.43;;;11.80;99.90;;;;;;5126734;28;20422;-83
2021/04/02 11:22:16;;;;;;;3.13;2.87;;;11.40;99.90;;;;;;5123591;28;20380;-83
2021/04/02 11:24:42;;;;;;;2.60;2.40;;;11.00;99.90;;;;;;5123739;28;20420;-83
2021/04/02 11:27:08;;;;;;;3.30;3.00;;;11.20;99.90;;;;;;5123427;28;20388;-83
2021/04/02 11:29:34;;;;;;;2.10;2.00;;;10.90;99.90;;;;;;5123348;28;20154;-83
2021/04/02 11:32:01;;;;;;;3.53;2.63;;;11.40;99.90;;;;;;5130653;28;20442;-82
2021/04/02 11:34:30;;;;;;;3.33;2.90;;;11.60;99.90;;;;;;5135453;28;20404;-83
2021/04/02 11:36:57;;;;;;;3.10;2.80;;;11.80;99.90;;;;;;5118739;28;20460;-83
2021/04/02 11:39:23;;;;;;;2.67;2.33;;;11.90;99.90;;;;;;5101785;28;20403;-83
2021/04/02 11:41:49;;;;;;;2.83;2.37;;;12.00;99.90;;;;;;5135594;28;20404;-82
2021/04/02 11:44:14;;;;;;;2.90;2.57;;;12.20;99.90;;;;;;5101118;28;20146;-83
2021/04/02 11:46:40;;;;;;;2.87;2.67;;;12.10;99.90;;;;;;5133608;28;20213;-83
2021/04/02 11:49:07;;;;;;;3.37;3.07;;;12.00;99.90;;;;;;5135071;28;20190;-83
2021/04/02 11:51:33;;;;;;;4.63;3.47;;;11.90;99.90;;;;;;5136170;28;20227;-83
2021/04/02 11:53:59;;;;;;;2.73;2.20;;;11.90;99.90;;;;;;5136046;28;20451;-83
2021/04/02 11:56:25;;;;;;;4.00;2.77;;;11.60;99.90;;;;;;5137199;28;20380;-82
2021/04/02 11:58:51;;;;;;;4.03;3.13;;;11.90;99.90;;;;;;5135555;28;20199;-80
2021/04/02 12:01:16;;;;;;;3.47;3.17;;;11.70;99.90;;;;;;5135936;28;20165;-79
2021/04/02 12:03:42;;;;;;;3.20;2.90;;;11.10;99.90;;;;;;5134516;28;20169;-83
2021/04/02 12:06:08;;;;;;;7.50;3.60;;;11.10;99.90;;;;;;5136174;28;20162;-82
2021/04/02 12:08:34;;;;;;;5.10;3.10;;;11.70;99.90;;;;;;5135253;28;20194;-81
2021/04/02 12:10:59;;;;;;;5.80;3.00;;;12.20;99.90;;;;;;5117370;28;20202;-82
2021/04/02 12:13:25;;;;;;;2.53;2.33;;;12.50;99.90;;;;;;5135008;28;20166;-83
2021/04/02 12:15:53;;;;;;;2.53;2.33;;;12.90;99.90;;;;;;5135491;28;20185;-82
2021/04/02 12:18:19;;;;;;;3.60;2.77;;;12.80;99.90;;;;;;5133498;28;20197;-83
2021/04/02 12:20:45;;;;;;;4.00;3.17;;;13.10;99.90;;;;;;5129957;28;20392;-82
2021/04/02 12:23:11;;;;;;;3.30;3.00;;;13.30;99.90;;;;;;5094842;28;20154;-82
2021/04/02 12:25:37;;;;;;;2.80;2.60;;;13.30;99.90;;;;;;5126622;28;20170;-83
2021/04/02 12:28:03;;;;;;;2.70;2.50;;;13.50;99.90;;;;;;5122809;28;20257;-84
2021/04/02 12:30:28;;;;;;;3.30;2.63;;;12.30;99.90;;;;;;5131518;28;20196;-82
2021/04/02 12:32:54;;;;;;;2.50;2.30;;;13.60;99.90;;;;;;5132936;28;20384;-81
2021/04/02 12:35:20;;;;;;;2.73;2.53;;;13.40;99.90;;;;;;5097027;28;20177;-81
2021/04/02 12:37:46;;;;;;;2.50;2.30;;;13.40;99.90;;;;;;5131401;28;20414;-81
2021/04/02 12:40:16;;;;;;;2.67;2.47;;;12.70;99.90;;;;;;5128995;28;20181;-81
2021/04/02 12:42:41;;;;;;;2.60;2.40;;;13.40;99.90;;;;;;5132895;28;20611;-81
2021/04/02 12:45:09;;;;;;;5.10;2.50;;;13.40;99.90;;;;;;5134023;28;20435;-83
2021/04/02 12:47:35;;;;;;;2.73;2.53;;;13.90;99.90;;;;;;5127945;28;20162;-82
2021/04/02 12:50:04;;;;;;;2.83;2.63;;;13.80;99.90;;;;;;5131250;28;20445;-81
2021/04/02 12:52:30;;;;;;;2.50;2.30;;;14.00;99.90;;;;;;5132737;28;20380;-84
2021/04/02 12:54:56;;;;;;;3.90;3.00;;;13.90;99.90;;;;;;5121850;28;20396;-82
2021/04/02 12:57:21;;;;;;;2.53;2.13;;;14.10;99.90;;;;;;5121489;28;20252;-84